Rocky Comfort, MO (64861)

8:57 AM CDT on September 19, 2014 (GMT -0500)
Farm Road 2100 | Change Station
CLOSE
Current Station
Personal Weather Station
Location: Wheaton, MO
Elevation: 1335 ft
Nearby Weather Stations

Elev 1335 ft 36.79 °N, 94.07 °W | Updated 9 seconds ago

Partly Cloudy
Partly Cloudy
63.6 °F
Feels Like 63.6 °F
N
5.0
Wind Variable Wind from ESE
Gusts 10.0 mph

Today
High -- | Low -- °F
--% Chance of Precip.
Yesterday
High -- | Low -- °F
Precip. -- in
7:01 AM 7:17 PM
Waning Crescent, 19% visible
Pressure 30.04 in
Visibility 4.0 miles
Clouds Scattered Clouds 500 ft
Dew Point 62 °F
Humidity 96%
Rainfall 0.00 in
Snow Depth Not available.
UV 1 out of 12
Pollen 7.00 out of 12
Air Quality Not available.
Flu Activity Not available.
METAR KHFJ 191335Z AUTO 13010KT 4SM BR SCT005 17/16 A3004 RMK AO2

More Conditions Fewer Conditions

Pressure 30.04 in
Visibility 4.0 miles
Clouds Scattered Clouds 500 ft
Dew Point 62 °F
Humidity 96%
Rainfall 0.00 in
Snow Depth Not available.
UV 1 out of 12
Pollen 7.00 out of 12
Air Quality Not available.
Flu Activity Not available.
METAR KHFJ 191335Z AUTO 13010KT 4SM BR SCT005 17/16 A3004 RMK AO2

More Conditions Fewer Conditions

10-Day Weather Forecast

Almanac

Astronomy

Sep. 19, 2014 Rise Set
Actual Time 7:01 AM CDT 7:17 PM CDT
Civil Twilight 6:36 AM CDT 7:43 PM CDT
Nautical Twilight 6:05 AM CDT 8:13 PM CDT
Astronomical Twilight 5:34 AM CDT 8:44 PM CDT
Moon 2:53 AM CDT 4:42 PM CDT
Length of Visible Light 13h 07m
Length of Day
12h 15m
Tomorrow will be 2m 19s shorter.
Waning Crescent, 19% of the Moon is Illuminated
Today
Waning Crescent
Sep 24
New
Oct 1
First Quarter
Oct 8
Full
Oct 15
Last Quarter

Today's Extremes

State Highs State Lows

Community

WunderPhotos

Upload Photos

1,754,608 photos uploaded!

WunderBlogs® & News

Nearby

Snow Depth

Station Depth Elevation
No new snow has been reported.

Earthquake Activity

City Distance Mag. Time & Date
No recent earthquake activity has been reported nearby.
Minimum magnitude displayed is 2.5.

Coastal Water Temperatures

Place Temperature
No Stations Reporting

Nearby Weather Stations